createdAt,value
2017-12-11T00:00:57.008Z,19.83
2017-12-11T00:03:23.504Z,18.27
2017-12-11T00:05:49.976Z,18.07
2017-12-11T00:08:16.392Z,17.20
2017-12-11T00:10:42.824Z,17.67
2017-12-11T00:13:09.195Z,17.60
2017-12-11T00:15:35.623Z,18.03
2017-12-11T00:18:02.051Z,19.73
2017-12-11T00:20:28.473Z,18.40
2017-12-11T00:22:54.863Z,18.43
2017-12-11T00:25:21.347Z,19.00
2017-12-11T00:27:47.747Z,18.27
2017-12-11T00:30:14.169Z,16.93
2017-12-11T00:32:40.575Z,16.40
2017-12-11T00:35:06.948Z,18.10
2017-12-11T00:37:33.405Z,18.23
2017-12-11T00:39:59.839Z,17.40
2017-12-11T00:42:26.270Z,19.17
2017-12-11T00:44:52.703Z,19.53
2017-12-11T00:47:19.178Z,20.90
2017-12-11T00:49:45.596Z,22.27
2017-12-11T00:52:12.049Z,19.67
2017-12-11T00:54:38.475Z,19.00
2017-12-11T00:57:04.880Z,16.90
2017-12-11T00:59:31.285Z,15.73
2017-12-11T01:01:57.738Z,15.27
2017-12-11T01:04:24.152Z,13.03
2017-12-11T01:06:50.605Z,14.00
2017-12-11T01:09:17.141Z,15.00
2017-12-11T01:11:43.520Z,15.60
2017-12-11T01:14:10.006Z,15.03
2017-12-11T01:16:36.643Z,13.83
2017-12-11T01:19:03.012Z,14.47
2017-12-11T01:21:29.613Z,14.37
2017-12-11T01:23:56.100Z,14.60
2017-12-11T01:26:22.464Z,14.13
2017-12-11T01:28:48.915Z,12.30
2017-12-11T01:31:15.383Z,12.17
2017-12-11T01:33:41.861Z,12.80
2017-12-11T01:36:08.273Z,12.50
2017-12-11T01:38:34.726Z,11.57
2017-12-11T01:41:01.192Z,12.30
2017-12-11T01:43:27.655Z,11.53
2017-12-11T01:45:54.176Z,11.23
2017-12-11T01:48:20.644Z,10.90
2017-12-11T01:50:47.122Z,10.27
2017-12-11T01:53:13.628Z,10.63
2017-12-11T01:55:40.012Z,11.53
2017-12-11T01:58:06.496Z,13.00
2017-12-11T02:00:32.955Z,12.10
2017-12-11T02:02:59.372Z,12.20
2017-12-11T02:05:25.752Z,12.47
2017-12-11T02:07:52.167Z,12.47
2017-12-11T02:10:18.585Z,12.17
2017-12-11T02:12:45.000Z,11.37
2017-12-11T02:15:11.485Z,10.73
2017-12-11T02:17:37.924Z,11.10
2017-12-11T02:20:04.373Z,10.57
2017-12-11T02:22:30.861Z,11.43
2017-12-11T02:24:57.316Z,12.47
2017-12-11T02:27:23.900Z,12.13
2017-12-11T02:29:50.391Z,12.57
2017-12-11T02:32:16.833Z,13.03
2017-12-11T02:34:43.295Z,13.63
2017-12-11T02:37:09.812Z,13.53
2017-12-11T02:39:36.281Z,14.27
2017-12-11T02:42:02.724Z,15.60
2017-12-11T02:44:29.242Z,15.83
2017-12-11T02:46:55.684Z,16.83
2017-12-11T02:49:22.236Z,16.03
2017-12-11T02:51:48.774Z,19.27
2017-12-11T02:54:15.205Z,17.37
2017-12-11T02:56:41.616Z,17.53
2017-12-11T02:59:08.048Z,18.90
2017-12-11T03:01:34.456Z,19.23
2017-12-11T03:04:00.856Z,18.80
2017-12-11T03:06:27.337Z,17.90
2017-12-11T03:08:53.733Z,19.13
2017-12-11T03:11:20.320Z,18.80
2017-12-11T03:13:46.772Z,21.47
2017-12-11T03:16:13.180Z,18.87
2017-12-11T03:18:39.578Z,18.13
2017-12-11T03:21:06.321Z,16.27
2017-12-11T03:23:32.858Z,14.70
2017-12-11T03:25:59.281Z,14.73
2017-12-11T03:28:25.685Z,13.23
2017-12-11T03:30:52.114Z,12.47
2017-12-11T03:33:18.552Z,10.10
2017-12-11T03:35:45.043Z,9.43
2017-12-11T03:38:11.461Z,9.63
2017-12-11T03:40:37.843Z,9.83
2017-12-11T03:43:04.289Z,10.53
2017-12-11T03:45:30.711Z,22.67
2017-12-11T03:47:57.126Z,18.43
2017-12-11T03:50:23.613Z,14.10
2017-12-11T03:52:50.061Z,14.57
2017-12-11T03:55:16.431Z,17.13
2017-12-11T03:57:42.827Z,18.03
2017-12-11T04:00:09.381Z,14.00
2017-12-11T04:02:35.883Z,12.13
2017-12-11T04:05:02.308Z,13.30
2017-12-11T04:07:28.877Z,13.07
2017-12-11T04:09:55.247Z,13.00
2017-12-11T04:12:21.728Z,14.17
2017-12-11T04:14:48.192Z,12.53
2017-12-11T04:17:14.693Z,13.80
2017-12-11T04:19:41.186Z,15.50
2017-12-11T04:22:07.549Z,34.00
2017-12-11T04:24:33.946Z,34.57
2017-12-11T04:27:00.337Z,19.37
2017-12-11T04:29:26.727Z,22.80
2017-12-11T04:31:53.175Z,18.13
2017-12-11T04:34:19.682Z,17.87
2017-12-11T04:36:46.045Z,16.03
2017-12-11T04:39:12.428Z,17.20
2017-12-11T04:41:39.086Z,16.30
2017-12-11T04:44:05.451Z,17.77
2017-12-11T04:46:31.932Z,21.43
2017-12-11T04:48:58.355Z,21.27
2017-12-11T04:51:24.783Z,19.50
2017-12-11T04:53:51.149Z,17.40
2017-12-11T04:56:17.625Z,18.50
2017-12-11T04:58:43.966Z,17.87
2017-12-11T05:01:10.449Z,18.20
2017-12-11T05:03:36.848Z,23.23
2017-12-11T05:06:03.372Z,24.20
2017-12-11T05:08:29.776Z,20.57
2017-12-11T05:10:56.351Z,17.17
2017-12-11T05:13:22.823Z,17.70
2017-12-11T05:15:49.180Z,16.53
2017-12-11T05:18:15.788Z,17.80
2017-12-11T05:20:42.210Z,17.70
2017-12-11T05:23:08.605Z,18.20
2017-12-11T05:25:35.091Z,17.83
2017-12-11T05:28:01.496Z,18.60
2017-12-11T05:30:27.956Z,19.60
2017-12-11T05:32:54.424Z,21.87
2017-12-11T05:35:20.877Z,21.70
2017-12-11T05:37:47.359Z,22.43
2017-12-11T05:40:13.825Z,22.00
2017-12-11T05:42:40.269Z,21.83
2017-12-11T05:45:06.636Z,22.40
2017-12-11T05:47:33.074Z,22.20
2017-12-11T05:49:59.525Z,27.37
2017-12-11T05:52:25.920Z,31.63
2017-12-11T05:54:52.358Z,40.00
2017-12-11T05:57:18.720Z,40.70
2017-12-11T05:59:45.238Z,40.47
2017-12-11T06:02:12.204Z,42.30
2017-12-11T06:04:38.578Z,38.17
2017-12-11T06:07:04.980Z,36.20
2017-12-11T06:09:31.436Z,32.43
2017-12-11T06:11:58.069Z,33.13
2017-12-11T06:14:24.442Z,34.67
2017-12-11T06:16:50.876Z,34.23
2017-12-11T06:19:17.234Z,31.43
2017-12-11T06:21:43.617Z,34.33
2017-12-11T06:24:10.028Z,33.97
2017-12-11T06:26:36.410Z,36.73
2017-12-11T06:29:02.780Z,44.07
2017-12-11T06:31:29.218Z,53.27
2017-12-11T06:33:55.580Z,52.30
2017-12-11T06:36:21.972Z,47.33
2017-12-11T06:38:48.495Z,56.23
2017-12-11T06:41:14.844Z,56.77
2017-12-11T06:43:41.210Z,53.60
2017-12-11T06:46:07.623Z,48.83
2017-12-11T06:48:34.036Z,45.07
2017-12-11T06:51:00.475Z,51.33
2017-12-11T06:53:26.982Z,54.37
2017-12-11T06:55:53.399Z,55.13
2017-12-11T06:58:19.892Z,57.03
2017-12-11T07:00:46.308Z,61.03
2017-12-11T07:03:12.674Z,57.53
2017-12-11T07:05:39.058Z,56.47
2017-12-11T07:08:05.470Z,59.17
2017-12-11T07:10:31.856Z,56.80
2017-12-11T07:12:58.394Z,58.87
2017-12-11T07:15:24.771Z,55.20
2017-12-11T07:17:51.238Z,55.50
2017-12-11T07:20:17.647Z,55.03
2017-12-11T07:22:44.144Z,55.40
2017-12-11T07:25:10.933Z,52.90
2017-12-11T07:27:37.472Z,49.53
2017-12-11T07:30:04.056Z,47.07
2017-12-11T07:32:30.824Z,43.10
2017-12-11T07:34:57.381Z,51.57
2017-12-11T07:37:23.857Z,52.87
2017-12-11T07:39:50.555Z,56.70
2017-12-11T07:42:17.364Z,47.57
2017-12-11T07:44:44.042Z,46.80
2017-12-11T07:47:10.471Z,50.07
2017-12-11T07:49:36.885Z,61.33
2017-12-11T07:52:03.409Z,58.43
2017-12-11T07:54:29.801Z,49.20
2017-12-11T07:56:56.175Z,51.27
2017-12-11T07:59:22.596Z,49.47
2017-12-11T08:01:49.012Z,51.57
2017-12-11T08:04:15.477Z,50.63
2017-12-11T08:06:41.920Z,52.30
2017-12-11T08:09:08.473Z,55.53
2017-12-11T08:11:34.998Z,51.43
2017-12-11T08:14:01.420Z,54.30
2017-12-11T08:16:27.848Z,51.67
2017-12-11T08:18:54.244Z,49.90
2017-12-11T08:21:20.620Z,50.27
2017-12-11T08:23:46.964Z,52.67
2017-12-11T08:26:13.353Z,50.30
2017-12-11T08:28:39.837Z,53.00
2017-12-11T08:31:06.220Z,54.57
2017-12-11T08:33:32.584Z,54.10
2017-12-11T08:35:58.972Z,56.53
2017-12-11T08:38:25.323Z,50.67
2017-12-11T09:18:11.796Z,27.93
2017-12-11T09:20:38.218Z,16.73
2017-12-11T09:23:04.558Z,17.63
2017-12-11T09:25:30.927Z,17.37
2017-12-11T09:27:57.275Z,16.23
2017-12-11T09:30:23.877Z,16.50
2017-12-11T09:32:50.263Z,18.83
2017-12-11T09:35:16.585Z,16.27
2017-12-11T09:37:42.912Z,13.70
2017-12-11T09:40:09.407Z,15.77
2017-12-11T09:42:35.817Z,14.97
2017-12-11T09:45:02.165Z,15.23
2017-12-11T09:47:28.625Z,16.97
2017-12-11T09:49:55.025Z,12.80
2017-12-11T09:52:21.400Z,14.03
2017-12-11T09:54:48.052Z,11.63
2017-12-11T09:57:14.641Z,10.60
2017-12-11T09:59:41.160Z,11.17
2017-12-11T10:02:07.604Z,9.20
2017-12-11T10:04:33.997Z,12.10
2017-12-11T10:07:00.373Z,10.87
2017-12-11T10:09:26.788Z,11.77
2017-12-11T10:11:53.132Z,12.17
2017-12-11T10:14:19.509Z,11.30
2017-12-11T10:16:45.924Z,10.50
2017-12-11T10:19:12.411Z,9.53
2017-12-11T10:21:38.771Z,10.00
2017-12-11T10:24:05.161Z,10.57
2017-12-11T10:26:31.607Z,10.40
2017-12-11T10:28:57.937Z,12.87
2017-12-11T10:31:24.366Z,11.67
2017-12-11T10:36:47.568Z,11.57
2017-12-11T10:39:13.991Z,10.20
2017-12-11T10:41:40.474Z,10.93
2017-12-11T10:44:06.832Z,11.77
2017-12-11T10:46:33.281Z,12.47
2017-12-11T10:48:59.599Z,12.67
2017-12-11T10:51:25.981Z,11.33
2017-12-11T10:53:52.308Z,12.50
2017-12-11T10:56:18.808Z,12.50
2017-12-11T10:58:45.251Z,13.53
2017-12-11T11:01:11.572Z,16.17
2017-12-11T11:03:37.912Z,13.00
2017-12-11T11:06:04.336Z,13.97
2017-12-11T11:08:30.683Z,12.73
2017-12-11T11:10:57.077Z,14.53
2017-12-11T11:13:23.500Z,14.63
2017-12-11T11:15:49.831Z,13.23
2017-12-11T11:18:16.231Z,18.00
2017-12-11T11:20:42.658Z,14.63
2017-12-11T11:23:08.979Z,15.23
2017-12-11T11:25:35.323Z,14.33
2017-12-11T11:28:01.703Z,18.13
2017-12-11T11:30:28.053Z,18.40
2017-12-11T11:32:54.420Z,18.27
2017-12-11T11:35:20.808Z,20.00
2017-12-11T11:37:47.253Z,19.03
2017-12-11T11:40:13.589Z,19.23
2017-12-11T11:42:39.963Z,20.10
2017-12-11T11:45:06.508Z,19.63
2017-12-11T11:47:33.090Z,18.97
2017-12-11T11:49:59.528Z,17.53
2017-12-11T11:52:25.955Z,16.90
2017-12-11T11:54:52.423Z,16.70
2017-12-11T11:57:18.896Z,19.40
2017-12-11T11:59:45.297Z,19.70
2017-12-11T12:02:11.704Z,16.37
2017-12-11T12:04:38.254Z,16.80
2017-12-11T12:07:04.640Z,16.90
2017-12-11T12:09:31.004Z,17.77
2017-12-11T12:11:57.427Z,17.20
2017-12-11T12:14:23.824Z,16.23
2017-12-11T12:16:50.529Z,18.33
2017-12-11T12:19:17.263Z,18.60
2017-12-11T12:21:43.647Z,17.33
2017-12-11T12:24:10.176Z,19.77
2017-12-11T12:26:36.595Z,20.03
2017-12-11T12:29:02.951Z,20.83
2017-12-11T12:31:29.325Z,19.93
2017-12-11T12:33:55.715Z,20.60
2017-12-11T12:36:22.058Z,20.70
2017-12-11T12:38:48.411Z,18.97
2017-12-11T12:41:15.361Z,19.40
2017-12-11T12:43:41.708Z,20.00
2017-12-11T12:46:08.032Z,18.83
2017-12-11T12:48:34.635Z,20.33
2017-12-11T12:51:01.960Z,18.43
2017-12-11T12:53:28.287Z,19.90
2017-12-11T12:55:54.679Z,19.90
2017-12-11T12:58:21.040Z,19.07
2017-12-11T13:00:47.363Z,19.47
2017-12-11T13:03:13.768Z,19.47
2017-12-11T13:05:40.096Z,21.90
2017-12-11T13:08:06.673Z,21.63
2017-12-11T13:10:33.071Z,20.70
2017-12-11T13:12:59.515Z,21.07
2017-12-11T13:15:25.915Z,19.47
2017-12-11T13:17:52.316Z,19.80
2017-12-11T13:20:18.716Z,20.10
2017-12-11T13:22:45.084Z,20.00
2017-12-11T13:25:13.183Z,18.97
2017-12-11T13:27:39.718Z,18.30
2017-12-11T13:30:06.050Z,17.87
2017-12-11T13:32:32.471Z,18.00
2017-12-11T13:34:58.800Z,16.43
2017-12-11T13:37:25.144Z,18.77
2017-12-11T13:39:51.516Z,18.50
2017-12-11T13:42:18.082Z,17.70
2017-12-11T13:44:44.454Z,19.83
2017-12-11T13:47:10.812Z,19.00
2017-12-11T13:49:37.140Z,15.47
2017-12-11T13:52:03.476Z,20.13
2017-12-11T13:54:29.877Z,19.27
2017-12-11T13:56:56.203Z,21.77
2017-12-11T13:59:22.552Z,19.70
2017-12-11T14:01:49.265Z,24.17
2017-12-11T14:04:15.602Z,25.17
2017-12-11T14:06:41.968Z,27.63
2017-12-11T14:09:08.342Z,26.37
2017-12-11T14:11:34.800Z,24.60
2017-12-11T14:14:01.234Z,22.87
2017-12-11T14:16:27.596Z,19.47
2017-12-11T14:18:53.928Z,22.20
2017-12-11T14:21:20.262Z,19.97
2017-12-11T14:23:46.761Z,19.97
2017-12-11T14:26:13.348Z,20.67
2017-12-11T14:28:39.704Z,23.17
2017-12-11T14:31:06.272Z,26.73
2017-12-11T14:33:32.620Z,25.27
2017-12-11T14:35:58.964Z,26.17
2017-12-11T14:38:25.497Z,20.70
2017-12-11T14:40:51.879Z,26.10
2017-12-11T14:43:18.228Z,27.57
2017-12-11T14:45:44.691Z,22.50
2017-12-11T14:48:11.100Z,38.50
2017-12-11T14:50:37.424Z,27.97
2017-12-11T14:53:03.832Z,39.67
2017-12-11T14:55:30.189Z,47.00
2017-12-11T14:57:59.444Z,48.90
2017-12-11T15:00:28.005Z,45.37
2017-12-11T15:02:54.364Z,38.63
2017-12-11T15:05:20.752Z,33.67
2017-12-11T15:07:47.876Z,36.47
2017-12-11T15:10:16.060Z,38.63
2017-12-11T15:12:42.572Z,38.00
2017-12-11T15:15:09.168Z,37.97
2017-12-11T15:17:35.666Z,36.57
2017-12-11T15:20:02.048Z,43.07
2017-12-11T15:22:28.569Z,40.77
2017-12-11T15:24:54.932Z,42.73
2017-12-11T15:27:21.273Z,43.00
2017-12-11T15:29:47.888Z,42.63
2017-12-11T15:32:14.244Z,49.57
2017-12-11T15:34:40.577Z,68.30
2017-12-11T15:37:06.988Z,68.37
2017-12-11T15:39:33.432Z,66.33
2017-12-11T15:41:59.805Z,63.00
2017-12-11T15:44:26.233Z,53.17
2017-12-11T15:46:52.619Z,56.80
2017-12-11T15:49:18.972Z,57.23
2017-12-11T15:51:45.392Z,57.37
2017-12-11T15:54:11.773Z,56.63
2017-12-11T15:56:38.431Z,55.50
2017-12-11T15:59:04.884Z,58.13
2017-12-11T16:01:31.268Z,63.00
2017-12-11T16:03:57.748Z,62.80
2017-12-11T16:06:24.176Z,49.87
2017-12-11T16:08:50.568Z,70.73
2017-12-11T16:11:16.968Z,76.87
2017-12-11T16:13:43.427Z,77.63
2017-12-11T16:16:09.812Z,73.90
2017-12-11T16:18:36.190Z,67.30
2017-12-11T16:21:03.394Z,46.33
2017-12-11T16:23:30.664Z,41.47
2017-12-11T16:25:57.333Z,43.03
2017-12-11T16:28:23.753Z,40.83
2017-12-11T16:30:50.119Z,40.07
2017-12-11T16:33:17.744Z,53.97
2017-12-11T16:35:45.522Z,59.10
2017-12-11T16:38:13.721Z,92.33
2017-12-11T16:40:40.105Z,92.37
2017-12-11T16:43:06.548Z,92.07
2017-12-11T16:45:32.998Z,84.83
2017-12-11T16:47:59.368Z,60.10
2017-12-11T16:50:25.788Z,76.70
2017-12-11T16:52:52.172Z,64.07
2017-12-11T16:55:18.577Z,61.30
2017-12-11T16:57:45.028Z,57.37
2017-12-11T17:00:11.452Z,51.07
2017-12-11T17:02:37.860Z,52.77
2017-12-11T17:05:04.363Z,54.07
2017-12-11T17:07:30.901Z,54.83
2017-12-11T17:09:57.230Z,54.80
2017-12-11T17:12:23.636Z,56.97
2017-12-11T17:14:49.968Z,64.60
2017-12-11T17:17:16.284Z,75.83
2017-12-11T17:19:42.715Z,70.43
2017-12-11T17:22:09.057Z,90.50
2017-12-11T17:24:35.381Z,101.10
2017-12-11T17:27:01.759Z,87.30
2017-12-11T17:29:28.132Z,88.90
2017-12-11T17:31:54.493Z,89.07
2017-12-11T17:34:20.876Z,70.47
2017-12-11T17:36:47.278Z,99.73
2017-12-11T17:39:13.683Z,99.20
2017-12-11T17:41:40.096Z,106.60
2017-12-11T17:44:06.579Z,98.37
2017-12-11T17:46:32.988Z,98.83
2017-12-11T17:48:59.392Z,96.57
2017-12-11T17:51:25.989Z,91.73
2017-12-11T17:53:52.393Z,93.77
2017-12-11T17:56:18.903Z,89.30
2017-12-11T17:58:47.192Z,84.57
2017-12-11T18:01:13.555Z,89.67
2017-12-11T18:03:39.944Z,97.60
2017-12-11T18:06:06.335Z,110.40
2017-12-11T18:08:32.668Z,113.60
2017-12-11T18:10:59.061Z,118.40
2017-12-11T18:13:25.400Z,119.03
2017-12-11T18:15:51.784Z,131.13
2017-12-11T18:18:18.160Z,126.83
2017-12-11T18:20:44.588Z,125.07
2017-12-11T18:23:10.963Z,119.33
2017-12-11T18:25:37.354Z,123.60
2017-12-11T18:28:03.683Z,119.83
2017-12-11T18:30:30.017Z,123.87
2017-12-11T18:32:56.675Z,125.40
2017-12-11T18:35:23.011Z,126.23
2017-12-11T18:37:49.381Z,127.37
2017-12-11T18:40:15.796Z,131.37
2017-12-11T18:42:42.307Z,133.53
2017-12-11T18:45:08.656Z,134.00
2017-12-11T18:47:35.359Z,132.80
2017-12-11T18:50:01.789Z,122.53
2017-12-11T18:52:28.116Z,114.53
2017-12-11T18:54:54.500Z,122.17
2017-12-11T18:57:20.852Z,125.97
2017-12-11T18:59:47.216Z,127.00
2017-12-11T19:02:13.776Z,131.30
2017-12-11T19:04:40.132Z,135.93
2017-12-11T19:07:06.513Z,138.33
2017-12-11T19:09:32.896Z,148.53
2017-12-11T19:11:59.223Z,138.67
2017-12-11T19:14:25.595Z,136.37
2017-12-11T19:16:52.080Z,128.00
2017-12-11T19:19:18.443Z,121.87
2017-12-11T19:21:44.827Z,116.23
2017-12-11T19:24:11.239Z,112.60
2017-12-11T19:26:37.697Z,118.37
2017-12-11T19:29:04.172Z,121.50
2017-12-11T19:31:30.622Z,121.10
2017-12-11T19:33:56.978Z,115.80
2017-12-11T19:36:23.396Z,111.37
2017-12-11T19:38:49.864Z,100.80
2017-12-11T19:41:16.208Z,92.17
2017-12-11T19:43:42.572Z,75.80
2017-12-11T19:46:09.032Z,62.73
2017-12-11T19:48:35.367Z,61.83
2017-12-11T19:51:01.720Z,62.50
2017-12-11T19:53:28.153Z,58.33
2017-12-11T19:55:54.515Z,54.20
2017-12-11T19:58:20.852Z,52.63
2017-12-11T20:00:47.229Z,51.13
2017-12-11T20:03:13.595Z,55.97
2017-12-11T20:05:39.916Z,55.97
2017-12-11T20:08:06.328Z,56.83
2017-12-11T20:10:32.676Z,56.47
2017-12-11T20:12:59.036Z,55.80
2017-12-11T20:15:25.420Z,53.50
2017-12-11T20:17:51.743Z,51.80
2017-12-11T20:20:18.071Z,53.60
2017-12-11T20:22:44.450Z,49.27
2017-12-11T20:25:10.780Z,51.47
2017-12-11T20:27:37.112Z,50.47
2017-12-11T20:30:03.484Z,50.23
2017-12-11T20:32:29.815Z,48.70
2017-12-11T20:34:56.148Z,46.43
2017-12-11T20:37:22.627Z,44.80
2017-12-11T20:39:48.976Z,44.17
2017-12-11T20:42:15.312Z,48.37
2017-12-11T20:44:41.687Z,49.33
2017-12-11T20:47:08.013Z,50.43
2017-12-11T20:49:34.346Z,51.47
2017-12-11T20:52:00.716Z,54.77
2017-12-11T20:54:27.024Z,54.00
2017-12-11T20:56:53.355Z,57.83
2017-12-11T20:59:19.731Z,57.13
2017-12-11T21:01:46.112Z,58.33
2017-12-11T21:04:12.536Z,59.87
2017-12-11T21:06:38.924Z,61.13
2017-12-11T21:09:05.313Z,56.57
2017-12-11T21:11:31.700Z,57.20
2017-12-11T21:13:58.118Z,58.37
2017-12-11T21:16:24.681Z,56.67
2017-12-11T21:18:51.120Z,55.30
2017-12-11T21:21:17.525Z,53.90
2017-12-11T21:23:43.881Z,50.33
2017-12-11T21:26:10.239Z,51.37
2017-12-11T21:28:36.631Z,44.97
2017-12-11T21:31:03.001Z,43.07
2017-12-11T21:33:29.459Z,41.90
2017-12-11T21:35:55.824Z,39.77
2017-12-11T21:38:22.196Z,37.73
2017-12-11T21:40:48.554Z,36.83
2017-12-11T21:43:14.948Z,36.97
2017-12-11T21:45:41.340Z,34.40
2017-12-11T21:48:07.676Z,35.13
2017-12-11T21:50:34.118Z,34.40
2017-12-11T21:53:00.501Z,34.40
2017-12-11T21:55:26.912Z,35.57
2017-12-11T21:57:53.363Z,35.03
2017-12-11T22:00:19.743Z,34.10
2017-12-11T22:02:46.120Z,35.83
2017-12-11T22:05:12.584Z,34.00
2017-12-11T22:07:38.981Z,35.30
2017-12-11T22:10:05.352Z,34.87
2017-12-11T22:12:31.880Z,35.73
2017-12-11T22:14:58.241Z,37.53
2017-12-11T22:17:24.621Z,37.00
2017-12-11T22:19:51.044Z,37.20
2017-12-11T22:22:17.416Z,36.67
2017-12-11T22:24:43.839Z,36.50
2017-12-11T22:27:10.231Z,36.57
2017-12-11T22:29:36.570Z,35.70
2017-12-11T22:32:02.940Z,39.60
2017-12-11T22:34:29.354Z,38.77
2017-12-11T22:36:55.715Z,38.63
2017-12-11T22:39:22.112Z,39.43
2017-12-11T22:41:48.497Z,37.50
2017-12-11T22:44:14.868Z,34.77
2017-12-11T22:46:41.308Z,33.00
2017-12-11T22:49:07.713Z,31.57
2017-12-11T22:51:34.197Z,30.67
2017-12-11T22:54:00.576Z,31.40
2017-12-11T22:56:27.012Z,33.13
2017-12-11T22:58:53.379Z,32.47
2017-12-11T23:01:19.760Z,31.93
2017-12-11T23:03:46.212Z,30.93
2017-12-11T23:06:12.552Z,32.37
2017-12-11T23:08:38.888Z,33.83
2017-12-11T23:11:05.267Z,33.07
2017-12-11T23:13:31.612Z,30.07
2017-12-11T23:15:57.998Z,31.80
2017-12-11T23:18:24.399Z,31.07
2017-12-11T23:20:50.755Z,31.37
2017-12-11T23:23:17.088Z,29.97
2017-12-11T23:25:43.546Z,30.00
2017-12-11T23:28:09.951Z,29.90
2017-12-11T23:30:36.336Z,32.67
2017-12-11T23:33:02.748Z,32.83
2017-12-11T23:35:29.051Z,30.87
2017-12-11T23:37:55.382Z,31.27
2017-12-11T23:40:21.760Z,31.93
2017-12-11T23:42:48.093Z,31.27
2017-12-11T23:45:14.437Z,32.83
2017-12-11T23:47:40.809Z,32.43
2017-12-11T23:50:07.139Z,32.03
2017-12-11T23:52:33.460Z,32.40
2017-12-11T23:54:59.926Z,32.57
2017-12-11T23:57:26.235Z,31.60
2017-12-11T23:59:52.560Z,29.07
